createdAt,value
2022-10-01T00:00:13.674Z,10.05
2022-10-01T00:01:17.877Z,10.02
2022-10-01T00:02:20.074Z,10.05
2022-10-01T00:03:24.350Z,10.06
2022-10-01T00:04:27.866Z,9.96
2022-10-01T00:05:30.079Z,9.95
2022-10-01T00:06:32.235Z,9.95
2022-10-01T00:07:41.410Z,10.02
2022-10-01T00:08:48.182Z,10.05
2022-10-01T00:09:50.529Z,10.00
2022-10-01T00:10:52.953Z,9.98
2022-10-01T00:11:55.111Z,9.95
2022-10-01T00:12:58.971Z,9.93
2022-10-01T00:14:03.791Z,9.90
2022-10-01T00:15:13.369Z,9.90
2022-10-01T00:16:21.927Z,9.93
2022-10-01T00:17:24.357Z,9.86
2022-10-01T00:18:26.548Z,9.84
2022-10-01T00:19:28.732Z,9.88
2022-10-01T00:20:30.918Z,9.96
2022-10-01T00:21:33.574Z,9.94
2022-10-01T00:22:36.346Z,9.95
2022-10-01T00:23:38.890Z,9.93
2022-10-01T00:24:41.094Z,9.96
2022-10-01T00:25:43.703Z,9.96
2022-10-01T00:26:46.031Z,10.01
2022-10-01T00:27:48.215Z,9.93
2022-10-01T00:28:57.537Z,9.94
2022-10-01T00:29:59.711Z,9.93
2022-10-01T00:31:02.090Z,9.94
2022-10-01T00:32:04.451Z,9.87
2022-10-01T00:33:06.719Z,9.85
2022-10-01T00:34:12.590Z,9.85
2022-10-01T00:35:14.948Z,9.84
2022-10-01T00:36:17.133Z,9.85
2022-10-01T00:37:20.786Z,9.83
2022-10-01T00:38:23.125Z,9.87
2022-10-01T00:39:25.281Z,9.88
2022-10-01T00:40:27.580Z,9.83
2022-10-01T00:41:32.785Z,9.83
2022-10-01T00:42:35.151Z,9.83
2022-10-01T00:43:42.706Z,9.84
2022-10-01T00:44:45.439Z,9.83
2022-10-01T00:45:48.644Z,9.82
2022-10-01T00:46:52.456Z,9.83
2022-10-01T00:47:58.172Z,9.80
2022-10-01T00:49:11.082Z,9.84
2022-10-01T00:50:30.546Z,9.86
2022-10-01T00:51:39.754Z,9.88
2022-10-01T00:52:45.569Z,9.87
2022-10-01T00:53:48.451Z,9.84
2022-10-01T00:54:57.630Z,9.83
2022-10-01T00:55:59.948Z,9.84
2022-10-01T00:57:04.774Z,9.84
2022-10-01T00:58:08.924Z,9.86
2022-10-01T00:59:12.850Z,9.85
2022-10-01T01:00:15.184Z,9.82
2022-10-01T01:01:17.397Z,9.82
2022-10-01T01:02:19.901Z,9.89
2022-10-01T01:03:22.613Z,9.91
2022-10-01T01:04:24.751Z,9.95
2022-10-01T01:05:27.022Z,9.91
2022-10-01T01:06:29.625Z,9.94
2022-10-01T01:07:33.830Z,9.86
2022-10-01T01:08:36.155Z,9.89
2022-10-01T01:09:43.495Z,9.82
2022-10-01T01:10:57.666Z,9.82
2022-10-01T01:12:14.695Z,9.79
2022-10-01T01:13:29.200Z,9.80
2022-10-01T01:15:09.464Z,9.83
2022-10-01T01:16:29.150Z,9.80
2022-10-01T01:17:53.145Z,9.83
2022-10-01T01:19:17.397Z,9.79
2022-10-01T01:20:31.838Z,9.77
2022-10-01T01:21:39.652Z,9.79
2022-10-01T01:22:50.774Z,9.79
2022-10-01T01:23:55.581Z,9.83
2022-10-01T01:25:03.207Z,9.86
2022-10-01T01:26:05.466Z,9.88
2022-10-01T01:27:42.659Z,9.86
2022-10-01T01:28:51.626Z,9.84
2022-10-01T01:29:57.354Z,9.84
2022-10-01T01:31:08.263Z,9.82
2022-10-01T01:32:21.707Z,9.79
2022-10-01T01:33:27.658Z,9.77
2022-10-01T01:34:32.629Z,9.75
2022-10-01T01:35:44.784Z,9.76
2022-10-01T01:36:54.469Z,9.77
2022-10-01T01:38:02.125Z,9.81
2022-10-01T01:39:08.374Z,9.79
2022-10-01T01:40:14.623Z,9.77
2022-10-01T01:41:20.142Z,9.67
2022-10-01T01:42:37.206Z,9.64
2022-10-01T01:43:44.814Z,9.63
2022-10-01T01:44:49.179Z,9.59
2022-10-01T01:45:55.983Z,9.60
2022-10-01T01:46:59.630Z,9.52
2022-10-01T01:48:03.743Z,9.52
2022-10-01T01:49:06.942Z,9.52
2022-10-01T01:50:10.876Z,9.49
2022-10-01T01:51:39.761Z,9.40
2022-10-01T01:52:42.149Z,9.37
2022-10-01T01:53:44.550Z,9.36
2022-10-01T01:54:49.734Z,9.30
2022-10-01T01:55:53.839Z,9.26
2022-10-01T01:56:58.321Z,9.30
2022-10-01T01:58:01.156Z,9.28
2022-10-01T01:59:03.969Z,9.22
2022-10-01T02:00:06.586Z,9.22
2022-10-01T02:01:41.793Z,9.22
2022-10-01T02:02:50.338Z,9.21
2022-10-01T02:03:52.698Z,9.21
2022-10-01T02:04:59.414Z,9.21
2022-10-01T02:06:17.960Z,9.22
2022-10-01T02:07:38.610Z,9.22
2022-10-01T02:08:52.121Z,9.19
2022-10-01T02:10:14.637Z,9.17
2022-10-01T02:11:21.700Z,9.18
2022-10-01T02:13:01.902Z,9.20
2022-10-01T02:14:25.490Z,9.15
2022-10-01T02:15:55.775Z,9.11
2022-10-01T02:17:02.051Z,9.02
2022-10-01T02:18:23.825Z,9.02
2022-10-01T02:19:41.095Z,9.09
2022-10-01T02:20:51.700Z,9.13
2022-10-01T02:21:59.434Z,9.06
2022-10-01T02:23:13.085Z,9.04
2022-10-01T02:24:49.026Z,8.99
2022-10-01T02:25:58.555Z,8.98
2022-10-01T02:27:05.673Z,9.04
2022-10-01T02:28:12.008Z,9.06
2022-10-01T02:29:17.752Z,9.04
2022-10-01T02:30:19.943Z,9.01
2022-10-01T02:31:23.354Z,9.06
2022-10-01T02:32:27.521Z,9.13
2022-10-01T02:33:32.604Z,9.07
2022-10-01T02:34:34.924Z,9.01
2022-10-01T02:35:37.868Z,9.01
2022-10-01T02:36:45.203Z,9.07
2022-10-01T02:37:52.505Z,9.10
2022-10-01T02:38:56.922Z,9.05
2022-10-01T02:40:01.639Z,9.02
2022-10-01T02:41:08.332Z,9.08
2022-10-01T02:42:14.034Z,9.03
2022-10-01T02:43:21.231Z,9.08
2022-10-01T02:44:32.044Z,9.07
2022-10-01T02:45:37.995Z,9.05
2022-10-01T02:46:49.182Z,8.99
2022-10-01T02:47:58.782Z,8.95
2022-10-01T02:49:02.884Z,8.95
2022-10-01T02:50:08.026Z,8.93
2022-10-01T02:51:34.172Z,8.89
2022-10-01T02:53:08.878Z,8.93
2022-10-01T02:54:22.612Z,8.95
2022-10-01T02:55:29.994Z,8.94
2022-10-01T02:56:54.310Z,8.94
2022-10-01T02:57:58.741Z,8.98
2022-10-01T02:59:01.033Z,8.95
2022-10-01T03:00:11.467Z,8.90
2022-10-01T03:01:13.651Z,8.91
2022-10-01T03:02:15.986Z,8.99
2022-10-01T03:03:18.236Z,9.05
2022-10-01T03:04:20.519Z,9.08
2022-10-01T03:05:23.019Z,9.09
2022-10-01T03:06:25.325Z,9.08
2022-10-01T03:07:29.965Z,9.00
2022-10-01T03:08:32.222Z,8.98
2022-10-01T03:09:36.665Z,9.00
2022-10-01T03:10:41.450Z,9.04
2022-10-01T03:11:45.868Z,9.10
2022-10-01T03:12:48.962Z,9.06
2022-10-01T03:13:51.310Z,9.02
2022-10-01T03:14:53.754Z,9.05
2022-10-01T03:15:56.197Z,9.03
2022-10-01T03:16:58.393Z,8.99
2022-10-01T03:18:00.728Z,8.94
2022-10-01T03:19:02.927Z,8.98
2022-10-01T03:20:05.983Z,8.97
2022-10-01T03:21:08.390Z,9.01
2022-10-01T03:22:14.103Z,9.02
2022-10-01T03:23:16.409Z,9.01
2022-10-01T03:24:18.582Z,8.97
2022-10-01T03:25:20.731Z,9.04
2022-10-01T03:26:26.943Z,9.03
2022-10-01T03:27:29.187Z,8.98
2022-10-01T03:28:31.541Z,8.97
2022-10-01T03:29:33.848Z,9.00
2022-10-01T03:30:35.982Z,8.94
2022-10-01T03:31:38.876Z,8.85
2022-10-01T03:32:41.153Z,8.86
2022-10-01T03:33:43.424Z,8.89
2022-10-01T03:34:46.295Z,8.91
2022-10-01T03:35:48.441Z,8.88
2022-10-01T03:36:52.389Z,8.86
2022-10-01T03:37:54.573Z,8.93
2022-10-01T03:38:56.739Z,9.01
2022-10-01T03:39:59.078Z,9.02
2022-10-01T03:41:01.528Z,9.02
2022-10-01T03:42:05.852Z,9.11
2022-10-01T03:43:08.021Z,9.03
2022-10-01T03:44:10.502Z,9.00
2022-10-01T03:45:12.937Z,9.00
2022-10-01T03:46:15.400Z,8.94
2022-10-01T03:47:17.616Z,8.95
2022-10-01T03:48:20.215Z,8.93
2022-10-01T03:49:22.446Z,8.85
2022-10-01T03:50:24.571Z,8.88
2022-10-01T03:51:31.500Z,8.88
2022-10-01T03:52:33.818Z,8.83
2022-10-01T03:53:36.092Z,8.85
2022-10-01T03:54:39.389Z,8.85
2022-10-01T03:55:41.689Z,8.84
2022-10-01T03:56:44.105Z,8.81
2022-10-01T03:57:46.467Z,8.74
2022-10-01T03:58:48.781Z,8.81
2022-10-01T03:59:50.949Z,8.76
2022-10-01T04:00:56.537Z,8.71
2022-10-01T04:01:58.926Z,8.73
2022-10-01T04:03:01.252Z,8.75
2022-10-01T04:04:04.095Z,8.74
2022-10-01T04:05:06.437Z,8.80
2022-10-01T04:06:08.744Z,8.80
2022-10-01T04:07:11.249Z,8.73
2022-10-01T04:08:13.997Z,8.73
2022-10-01T04:09:16.352Z,8.73
2022-10-01T04:10:19.168Z,8.73
2022-10-01T04:11:21.738Z,8.76
2022-10-01T04:12:26.757Z,8.77
2022-10-01T04:13:30.004Z,8.68
2022-10-01T04:14:32.326Z,8.73
2022-10-01T04:15:34.851Z,8.71
2022-10-01T04:16:37.273Z,8.66
2022-10-01T04:17:42.681Z,8.68
2022-10-01T04:18:47.946Z,8.63
2022-10-01T04:19:50.092Z,8.65
2022-10-01T04:20:52.440Z,8.59
2022-10-01T04:21:54.729Z,8.58
2022-10-01T04:22:56.920Z,8.62
2022-10-01T04:23:59.677Z,8.70
2022-10-01T04:25:02.684Z,8.67
2022-10-01T04:26:05.062Z,8.69
2022-10-01T04:27:07.211Z,8.61
2022-10-01T04:28:12.215Z,8.56
2022-10-01T04:29:14.814Z,8.58
2022-10-01T04:30:17.003Z,8.58
2022-10-01T04:31:25.462Z,8.59
2022-10-01T04:32:28.093Z,8.55
2022-10-01T04:33:30.210Z,8.56
2022-10-01T04:34:51.025Z,8.55
2022-10-01T04:35:53.257Z,8.58
2022-10-01T04:36:56.356Z,8.54
2022-10-01T04:38:03.587Z,8.61
2022-10-01T04:39:09.715Z,8.61
2022-10-01T04:40:13.058Z,8.61
2022-10-01T04:41:21.827Z,8.60
2022-10-01T04:42:24.016Z,8.68
2022-10-01T04:43:26.245Z,8.65
2022-10-01T04:44:31.203Z,8.70
2022-10-01T04:45:33.936Z,8.68
2022-10-01T04:46:36.276Z,8.65
2022-10-01T04:47:38.819Z,8.68
2022-10-01T04:48:41.249Z,8.71
2022-10-01T04:49:43.381Z,8.65
2022-10-01T04:50:45.654Z,8.67
2022-10-01T04:51:47.842Z,8.69
2022-10-01T04:52:50.923Z,8.74
2022-10-01T04:53:53.146Z,8.80
2022-10-01T04:54:55.276Z,8.80
2022-10-01T04:55:57.466Z,8.80
2022-10-01T04:56:59.802Z,8.81
2022-10-01T04:58:02.992Z,8.87
2022-10-01T04:59:05.134Z,8.76
2022-10-01T05:00:10.108Z,8.80
2022-10-01T05:01:12.263Z,8.75
2022-10-01T05:02:14.829Z,8.76
2022-10-01T05:03:17.864Z,8.77
2022-10-01T05:04:20.022Z,8.77
2022-10-01T05:05:24.126Z,8.80
2022-10-01T05:06:26.235Z,8.77
2022-10-01T05:07:28.596Z,8.86
2022-10-01T05:08:31.298Z,8.89
2022-10-01T05:09:33.552Z,8.94
2022-10-01T05:10:36.555Z,8.97
2022-10-01T05:11:39.183Z,9.00
2022-10-01T05:12:42.229Z,8.97
2022-10-01T05:13:44.741Z,9.06
2022-10-01T05:14:47.302Z,9.06
2022-10-01T05:15:52.250Z,9.03
2022-10-01T05:16:54.677Z,8.98
2022-10-01T05:17:57.241Z,9.04
2022-10-01T05:18:59.377Z,9.03
2022-10-01T05:20:04.641Z,9.01
2022-10-01T05:21:07.965Z,9.09
2022-10-01T05:22:10.147Z,9.14
2022-10-01T05:23:12.443Z,9.18
2022-10-01T05:24:16.202Z,9.21
2022-10-01T05:25:19.406Z,9.23
2022-10-01T05:26:21.840Z,9.23
2022-10-01T05:27:24.026Z,9.26
2022-10-01T05:28:28.149Z,9.20
2022-10-01T05:29:30.707Z,9.25
2022-10-01T05:30:34.187Z,9.30
2022-10-01T05:31:36.770Z,9.30
2022-10-01T05:32:39.885Z,9.38
2022-10-01T05:33:42.652Z,9.44
2022-10-01T05:34:46.362Z,9.36
2022-10-01T05:35:52.041Z,9.47
2022-10-01T05:36:55.407Z,9.43
2022-10-01T05:37:59.838Z,9.41
2022-10-01T05:39:02.327Z,9.37
2022-10-01T05:40:04.996Z,9.35
2022-10-01T05:41:07.170Z,9.36
2022-10-01T05:42:09.436Z,9.46
2022-10-01T05:43:12.247Z,9.36
2022-10-01T05:44:14.525Z,9.43
2022-10-01T05:45:17.149Z,9.49
2022-10-01T05:46:19.815Z,9.50
2022-10-01T05:47:22.534Z,9.55
2022-10-01T05:48:24.837Z,9.61
2022-10-01T05:49:27.202Z,9.69
2022-10-01T05:50:33.731Z,9.75
2022-10-01T05:51:36.460Z,9.75
2022-10-01T05:52:39.008Z,9.69
2022-10-01T05:53:41.391Z,9.64
2022-10-01T05:54:43.855Z,9.65
2022-10-01T05:55:46.564Z,9.65
2022-10-01T05:56:50.391Z,9.73
2022-10-01T05:58:01.280Z,9.77
2022-10-01T05:59:04.889Z,9.77
2022-10-01T06:00:07.542Z,9.84
2022-10-01T06:01:14.252Z,9.87
2022-10-01T06:02:16.648Z,9.99
2022-10-01T06:03:19.064Z,10.06
2022-10-01T06:04:21.496Z,10.06
2022-10-01T06:05:24.767Z,10.06
2022-10-01T06:06:27.843Z,10.01
2022-10-01T06:07:33.012Z,10.10
2022-10-01T06:08:37.185Z,10.13
2022-10-01T06:09:39.347Z,10.15
2022-10-01T06:10:41.704Z,10.15
2022-10-01T06:11:44.229Z,10.22
2022-10-01T06:12:46.864Z,10.24
2022-10-01T06:13:49.229Z,10.32
2022-10-01T06:14:51.434Z,10.35
2022-10-01T06:15:54.007Z,10.35
2022-10-01T06:16:56.202Z,10.39
2022-10-01T06:18:02.535Z,10.40
2022-10-01T06:19:04.817Z,10.45
2022-10-01T06:20:07.265Z,10.47
2022-10-01T06:21:10.207Z,10.48
2022-10-01T06:22:12.517Z,10.52
2022-10-01T06:23:14.996Z,10.47
2022-10-01T06:24:17.337Z,10.48
2022-10-01T06:25:19.633Z,10.63
2022-10-01T06:26:22.020Z,10.67
2022-10-01T06:27:24.155Z,10.68
2022-10-01T06:28:26.609Z,10.73
2022-10-01T06:29:28.925Z,10.71
2022-10-01T06:30:32.743Z,10.77
2022-10-01T06:31:35.192Z,10.76
2022-10-01T06:32:37.577Z,10.71
2022-10-01T06:33:39.786Z,10.79
2022-10-01T06:34:42.110Z,10.83
2022-10-01T06:35:47.285Z,10.88
2022-10-01T06:36:49.455Z,10.87
2022-10-01T06:37:51.591Z,10.88
2022-10-01T06:38:53.764Z,10.89
2022-10-01T06:39:55.901Z,10.93
2022-10-01T06:40:59.849Z,10.91
2022-10-01T06:42:02.172Z,10.87
2022-10-01T06:43:06.188Z,10.86
2022-10-01T06:44:08.341Z,10.88
2022-10-01T06:45:10.670Z,10.84
2022-10-01T06:46:12.932Z,10.84
2022-10-01T06:47:15.147Z,10.88
2022-10-01T06:48:19.635Z,10.87
2022-10-01T06:49:22.788Z,10.94
2022-10-01T06:50:26.042Z,10.98
2022-10-01T06:51:51.064Z,10.92
2022-10-01T06:52:53.362Z,11.02
2022-10-01T06:53:57.397Z,11.05
2022-10-01T06:55:01.379Z,11.07
2022-10-01T06:56:07.481Z,11.08
2022-10-01T06:57:12.562Z,11.16
2022-10-01T06:58:19.625Z,11.21
2022-10-01T06:59:21.782Z,11.24
2022-10-01T07:00:24.926Z,11.29
2022-10-01T07:01:27.145Z,11.40
2022-10-01T07:02:30.200Z,11.41
2022-10-01T07:03:32.467Z,11.50
2022-10-01T07:04:34.678Z,11.47
2022-10-01T07:05:40.993Z,11.53
2022-10-01T07:06:43.222Z,11.61
2022-10-01T07:07:45.634Z,11.69
2022-10-01T07:08:50.998Z,11.62
2022-10-01T07:09:53.277Z,11.66
2022-10-01T07:11:02.724Z,11.65
2022-10-01T07:12:05.209Z,11.74
2022-10-01T07:13:09.644Z,11.74
2022-10-01T07:14:11.788Z,11.86
2022-10-01T07:15:14.442Z,11.94
2022-10-01T07:16:16.654Z,12.02
2022-10-01T07:17:18.861Z,12.07
2022-10-01T07:18:21.173Z,11.97
2022-10-01T07:19:23.443Z,12.05
2022-10-01T07:20:25.616Z,12.13
2022-10-01T07:21:27.789Z,11.99
2022-10-01T07:22:29.990Z,12.19
2022-10-01T07:23:34.213Z,12.31
2022-10-01T07:24:36.394Z,12.19
2022-10-01T07:25:40.640Z,12.20
2022-10-01T07:26:42.794Z,12.25
2022-10-01T07:27:45.136Z,12.35
2022-10-01T07:28:47.343Z,12.43
2022-10-01T07:29:49.498Z,12.43
2022-10-01T07:31:06.896Z,12.47
2022-10-01T07:32:10.422Z,12.52
2022-10-01T07:33:13.276Z,12.48
2022-10-01T07:34:15.908Z,12.53
2022-10-01T07:35:20.348Z,12.47
2022-10-01T07:36:22.803Z,12.46
2022-10-01T07:37:25.183Z,12.42
2022-10-01T07:38:27.295Z,12.34
2022-10-01T07:39:30.699Z,12.40
2022-10-01T07:40:33.067Z,12.39
2022-10-01T07:41:35.511Z,12.34
2022-10-01T07:42:38.503Z,12.44
2022-10-01T07:43:42.299Z,12.52
2022-10-01T07:44:44.445Z,12.49
2022-10-01T07:45:47.249Z,12.55
2022-10-01T07:46:49.643Z,12.54
2022-10-01T07:47:59.971Z,12.55
2022-10-01T07:49:02.090Z,12.66
2022-10-01T07:50:04.765Z,12.63
2022-10-01T07:51:07.726Z,12.72
2022-10-01T07:52:13.248Z,12.75
2022-10-01T07:53:15.836Z,12.66
2022-10-01T07:54:18.968Z,12.69
2022-10-01T07:55:21.361Z,12.70
2022-10-01T07:56:24.634Z,12.77
2022-10-01T07:57:26.796Z,12.78
2022-10-01T07:58:28.961Z,12.89
2022-10-01T07:59:31.305Z,12.79
2022-10-01T08:00:34.554Z,12.89
2022-10-01T08:01:38.494Z,13.11
2022-10-01T08:02:40.905Z,13.15
2022-10-01T08:03:43.240Z,13.19
2022-10-01T08:05:05.648Z,13.26
2022-10-01T08:06:11.044Z,13.30
2022-10-01T08:07:15.453Z,13.34
2022-10-01T08:08:17.624Z,13.26
2022-10-01T08:09:20.709Z,13.24
2022-10-01T08:10:23.310Z,13.28
2022-10-01T08:11:25.488Z,13.23
2022-10-01T08:12:28.882Z,13.21
2022-10-01T08:13:31.025Z,13.16
2022-10-01T08:14:33.553Z,13.13
2022-10-01T08:15:35.825Z,13.18
2022-10-01T08:16:40.169Z,13.21
2022-10-01T08:17:43.572Z,13.26
2022-10-01T08:18:45.698Z,13.34
2022-10-01T08:19:47.839Z,13.38
2022-10-01T08:20:50.142Z,13.42
2022-10-01T08:21:52.851Z,13.38
2022-10-01T08:23:00.850Z,13.50
2022-10-01T08:24:03.798Z,13.50
2022-10-01T08:25:06.624Z,13.42
2022-10-01T08:26:08.830Z,13.45
2022-10-01T08:27:11.465Z,13.55
2022-10-01T08:28:14.694Z,13.52
2022-10-01T08:29:17.217Z,13.60
2022-10-01T08:30:19.442Z,13.63
2022-10-01T08:31:21.980Z,13.65
2022-10-01T08:32:26.329Z,13.67
2022-10-01T08:33:28.484Z,13.70
2022-10-01T08:34:31.370Z,13.75
2022-10-01T08:35:33.912Z,13.79
2022-10-01T08:36:37.786Z,13.75
2022-10-01T08:37:40.175Z,13.67
2022-10-01T08:38:45.573Z,13.74
2022-10-01T08:39:47.868Z,13.78
2022-10-01T08:40:51.422Z,13.71
2022-10-01T08:42:12.709Z,13.71
2022-10-01T08:43:40.415Z,13.55
2022-10-01T08:44:45.518Z,13.54
2022-10-01T08:45:51.719Z,13.55
2022-10-01T08:47:00.675Z,13.52
2022-10-01T08:48:30.996Z,13.57
2022-10-01T08:49:46.295Z,13.57
2022-10-01T08:50:57.872Z,13.54
2022-10-01T08:52:23.315Z,13.57
2022-10-01T08:53:41.213Z,13.52
2022-10-01T08:54:57.839Z,13.56
2022-10-01T08:56:02.362Z,13.67
2022-10-01T08:57:14.168Z,13.60
2022-10-01T08:58:26.272Z,13.66
2022-10-01T08:59:53.742Z,13.75
2022-10-01T09:00:55.941Z,13.85
2022-10-01T09:01:59.256Z,13.87
2022-10-01T09:03:06.380Z,14.01
2022-10-01T09:04:08.795Z,13.95
2022-10-01T09:05:16.428Z,13.94
2022-10-01T09:06:21.452Z,13.96
2022-10-01T09:07:50.609Z,14.02
2022-10-01T09:09:30.551Z,14.00
2022-10-01T09:10:47.520Z,13.98
2022-10-01T09:12:14.658Z,14.03
2022-10-01T09:13:31.859Z,14.04
2022-10-01T09:15:03.694Z,14.03
2022-10-01T09:16:25.436Z,14.07
2022-10-01T09:17:43.920Z,14.10
2022-10-01T09:19:06.605Z,14.10
2022-10-01T09:20:21.106Z,14.14
2022-10-01T09:21:35.452Z,14.08
2022-10-01T09:22:49.978Z,14.07
2022-10-01T09:24:04.155Z,14.05
2022-10-01T09:25:09.152Z,14.19
2022-10-01T09:26:13.138Z,14.26
2022-10-01T09:27:17.552Z,14.28
2022-10-01T09:28:27.666Z,14.30
2022-10-01T09:29:44.339Z,14.20
2022-10-01T09:30:56.813Z,14.40
2022-10-01T09:32:01.947Z,14.34
2022-10-01T09:33:13.948Z,14.50
2022-10-01T09:34:34.084Z,14.65
2022-10-01T09:35:56.634Z,14.67
2022-10-01T09:37:21.935Z,14.63
2022-10-01T09:38:46.148Z,14.74
2022-10-01T09:40:12.802Z,14.76
2022-10-01T09:41:14.988Z,14.79
2022-10-01T09:42:18.404Z,14.81
2022-10-01T09:43:31.797Z,14.85
2022-10-01T09:44:34.501Z,14.83
2022-10-01T09:45:38.542Z,14.89
2022-10-01T09:46:41.237Z,15.02
2022-10-01T09:47:48.681Z,14.93
2022-10-01T09:48:56.686Z,15.04
2022-10-01T09:50:03.344Z,15.00
2022-10-01T09:51:12.973Z,15.16
2022-10-01T09:52:28.422Z,15.27
2022-10-01T09:54:09.819Z,15.41
2022-10-01T09:55:18.286Z,15.71
2022-10-01T09:57:01.481Z,15.80
2022-10-01T09:58:28.506Z,15.97
2022-10-01T09:59:38.398Z,16.12
2022-10-01T10:00:41.974Z,16.10
2022-10-01T10:01:50.016Z,16.05
2022-10-01T10:02:54.434Z,16.06
2022-10-01T10:03:57.890Z,16.05
2022-10-01T10:05:10.178Z,16.10
2022-10-01T10:06:12.896Z,16.08
2022-10-01T10:07:19.046Z,16.09
2022-10-01T10:08:21.201Z,16.10
2022-10-01T10:09:30.101Z,16.21
2022-10-01T10:10:35.698Z,16.24
2022-10-01T10:11:42.789Z,16.19
2022-10-01T10:12:45.721Z,16.21
2022-10-01T10:13:54.393Z,16.26
2022-10-01T10:14:58.923Z,16.35
2022-10-01T10:16:10.617Z,16.40
2022-10-01T10:17:16.789Z,16.42
2022-10-01T10:18:29.583Z,16.43
2022-10-01T10:19:33.980Z,16.44
2022-10-01T10:20:43.596Z,16.52
2022-10-01T10:22:00.630Z,16.47
2022-10-01T10:23:15.907Z,16.60
2022-10-01T10:24:33.008Z,16.65
2022-10-01T10:25:35.236Z,16.67
2022-10-01T10:26:41.200Z,16.72
2022-10-01T10:27:56.117Z,16.63
2022-10-01T10:29:01.788Z,16.64
2022-10-01T10:30:17.826Z,16.64
2022-10-01T10:31:22.565Z,16.54
2022-10-01T10:32:27.576Z,16.42
2022-10-01T10:33:30.210Z,16.42
2022-10-01T10:34:42.729Z,16.48
2022-10-01T10:35:47.540Z,16.42
2022-10-01T10:36:59.626Z,16.32
2022-10-01T10:38:02.516Z,16.31
2022-10-01T10:39:10.276Z,16.22
2022-10-01T10:40:29.289Z,16.23
2022-10-01T10:41:34.244Z,16.27
2022-10-01T10:42:48.088Z,16.30
2022-10-01T10:43:51.389Z,16.22
2022-10-01T10:44:57.451Z,16.13
2022-10-01T10:46:00.659Z,16.15
2022-10-01T10:47:06.837Z,16.14
2022-10-01T10:48:17.283Z,16.21
2022-10-01T10:49:36.167Z,16.19
2022-10-01T10:50:40.503Z,16.17
2022-10-01T10:51:54.076Z,16.17
2022-10-01T10:52:57.173Z,16.13
2022-10-01T10:54:02.073Z,15.96
2022-10-01T10:55:23.383Z,15.87
2022-10-01T10:56:26.296Z,15.96
2022-10-01T10:57:34.218Z,15.72
2022-10-01T10:58:42.244Z,15.76
2022-10-01T11:00:08.246Z,15.63
2022-10-01T11:01:16.468Z,15.74
2022-10-01T11:02:22.781Z,15.75
2022-10-01T11:03:29.056Z,15.64
2022-10-01T11:04:31.181Z,15.68
2022-10-01T11:05:41.567Z,15.59
2022-10-01T11:06:43.920Z,15.58
2022-10-01T11:07:48.695Z,15.55
2022-10-01T11:09:00.569Z,15.50
2022-10-01T11:10:47.351Z,15.51
2022-10-01T11:12:12.808Z,15.32
2022-10-01T11:13:45.328Z,15.35
2022-10-01T11:14:53.620Z,15.40
2022-10-01T11:16:21.541Z,15.21
2022-10-01T11:17:31.007Z,15.16
2022-10-01T11:18:39.340Z,15.17
2022-10-01T11:20:20.635Z,15.21
2022-10-01T11:21:35.568Z,15.17
2022-10-01T11:22:56.147Z,15.28
2022-10-01T11:24:24.739Z,15.32
2022-10-01T11:25:55.493Z,15.17
2022-10-01T11:27:11.254Z,15.05
2022-10-01T11:28:37.345Z,15.20
2022-10-01T11:30:05.529Z,15.21
2022-10-01T11:31:22.983Z,15.17
2022-10-01T11:32:51.899Z,15.13
2022-10-01T11:34:13.753Z,15.18
2022-10-01T11:35:28.882Z,15.13
2022-10-01T11:36:31.187Z,15.19
2022-10-01T11:37:36.225Z,15.11
2022-10-01T11:38:43.231Z,15.01
2022-10-01T11:39:51.873Z,14.95
2022-10-01T11:41:15.196Z,14.97
2022-10-01T11:42:24.562Z,14.93
2022-10-01T11:43:46.808Z,14.90
2022-10-01T11:45:01.551Z,14.97
2022-10-01T11:46:23.473Z,14.92
2022-10-01T11:47:39.248Z,14.85
2022-10-01T11:48:47.698Z,14.76
2022-10-01T11:50:04.458Z,14.65
2022-10-01T11:51:22.608Z,14.70
2022-10-01T11:52:37.907Z,14.69
2022-10-01T11:53:46.998Z,14.57
2022-10-01T11:55:38.911Z,14.48
2022-10-01T11:57:04.629Z,14.49
2022-10-01T11:58:47.023Z,14.52
2022-10-01T12:00:09.815Z,14.40
2022-10-01T12:01:25.157Z,14.34
2022-10-01T12:02:35.061Z,14.37
2022-10-01T12:03:53.489Z,14.39
2022-10-01T12:05:01.451Z,14.26
2022-10-01T12:06:09.507Z,14.25
2022-10-01T12:07:20.381Z,14.15
2022-10-01T12:08:31.827Z,14.23
2022-10-01T12:10:00.367Z,14.33
2022-10-01T12:11:13.891Z,14.18
2022-10-01T12:12:24.070Z,14.21
2022-10-01T12:13:37.794Z,14.22
2022-10-01T12:15:06.726Z,14.30
2022-10-01T12:16:38.302Z,14.31
2022-10-01T12:17:40.759Z,14.24
2022-10-01T12:18:48.839Z,14.17
2022-10-01T12:19:54.103Z,14.13
2022-10-01T12:21:00.035Z,14.14
2022-10-01T12:22:15.333Z,14.18
2022-10-01T12:23:25.149Z,14.22
2022-10-01T12:24:40.722Z,14.28
2022-10-01T12:26:01.816Z,14.24
2022-10-01T12:27:22.880Z,14.23
2022-10-01T12:28:39.535Z,14.36
2022-10-01T12:30:12.695Z,14.33
2022-10-01T12:31:39.562Z,14.44
2022-10-01T12:32:58.070Z,14.31
2022-10-01T12:34:06.910Z,14.22
2022-10-01T12:35:26.373Z,14.27
2022-10-01T12:36:39.658Z,14.16
2022-10-01T12:38:08.621Z,14.04
2022-10-01T12:39:13.922Z,13.94
2022-10-01T12:40:45.866Z,13.77
2022-10-01T12:42:30.137Z,13.72
2022-10-01T12:43:50.729Z,13.74
2022-10-01T12:45:06.051Z,13.69
2022-10-01T12:46:25.772Z,13.77
2022-10-01T12:47:28.518Z,13.77
2022-10-01T12:48:59.628Z,13.77
2022-10-01T12:50:01.846Z,13.61
2022-10-01T12:51:32.863Z,13.71
2022-10-01T12:52:46.843Z,13.69
2022-10-01T12:54:01.194Z,13.87
2022-10-01T12:55:22.183Z,13.85
2022-10-01T12:56:30.214Z,13.98
2022-10-01T12:57:39.345Z,13.95
2022-10-01T12:58:47.056Z,13.89
2022-10-01T13:00:10.656Z,13.82
2022-10-01T13:01:44.337Z,13.89
2022-10-01T13:03:08.288Z,13.79
2022-10-01T13:04:13.355Z,13.91
2022-10-01T13:05:44.360Z,13.93
2022-10-01T13:06:54.079Z,13.84
2022-10-01T13:08:17.571Z,13.89
2022-10-01T13:09:22.459Z,13.91
2022-10-01T13:10:33.237Z,14.02
2022-10-01T13:11:55.704Z,14.06
2022-10-01T13:13:07.802Z,14.05
2022-10-01T13:14:18.193Z,14.11
2022-10-01T13:15:49.596Z,14.13
2022-10-01T13:17:13.819Z,14.12
2022-10-01T13:18:33.391Z,14.00
2022-10-01T13:19:49.822Z,13.90
2022-10-01T13:21:05.675Z,13.81
2022-10-01T13:22:38.266Z,13.74
2022-10-01T13:24:01.584Z,13.82
2022-10-01T13:25:19.921Z,13.78
2022-10-01T13:26:43.264Z,13.82
2022-10-01T13:27:56.340Z,13.88
2022-10-01T13:29:11.469Z,13.78
2022-10-01T13:30:18.570Z,13.77
2022-10-01T13:31:35.189Z,13.74
2022-10-01T13:32:55.349Z,13.83
2022-10-01T13:33:59.719Z,13.91
2022-10-01T13:35:32.884Z,13.90
2022-10-01T13:36:38.120Z,13.87
2022-10-01T13:37:41.140Z,13.85
2022-10-01T13:38:47.951Z,13.83
2022-10-01T13:39:50.467Z,13.82
2022-10-01T13:41:04.691Z,13.80
2022-10-01T13:42:16.094Z,13.73
2022-10-01T13:43:21.369Z,13.78
2022-10-01T13:44:33.177Z,13.81
2022-10-01T13:45:38.462Z,13.85
2022-10-01T13:47:07.048Z,13.87
2022-10-01T13:48:23.590Z,13.79
2022-10-01T13:49:31.449Z,13.84
2022-10-01T13:50:34.566Z,13.81
2022-10-01T13:51:38.152Z,13.84
2022-10-01T13:52:41.068Z,13.84
2022-10-01T13:53:43.225Z,13.89
2022-10-01T13:54:50.448Z,13.89
2022-10-01T13:55:54.336Z,13.89
2022-10-01T13:57:11.288Z,13.94
2022-10-01T13:58:40.816Z,13.88
2022-10-01T13:59:43.824Z,13.84
2022-10-01T14:00:55.936Z,13.87
2022-10-01T14:01:58.431Z,13.84
2022-10-01T14:03:24.013Z,13.81
2022-10-01T14:04:48.143Z,13.90
2022-10-01T14:05:57.063Z,13.83
2022-10-01T14:07:04.535Z,13.87
2022-10-01T14:08:31.232Z,13.87
2022-10-01T14:09:45.763Z,13.90
2022-10-01T14:11:20.361Z,13.88
2022-10-01T14:12:52.927Z,13.87
2022-10-01T14:14:16.490Z,13.87
2022-10-01T14:15:38.619Z,13.86
2022-10-01T14:16:46.180Z,13.74
2022-10-01T14:17:55.880Z,13.73
2022-10-01T14:18:58.291Z,13.72
2022-10-01T14:20:01.400Z,13.65
2022-10-01T14:21:29.435Z,13.56
2022-10-01T14:22:53.406Z,13.57
2022-10-01T14:24:05.699Z,13.65
2022-10-01T14:25:29.470Z,13.62
2022-10-01T14:26:34.952Z,13.68
2022-10-01T14:28:06.860Z,13.68
2022-10-01T14:29:38.663Z,13.73
2022-10-01T14:31:03.708Z,13.71
2022-10-01T14:32:06.248Z,13.75
2022-10-01T14:33:26.377Z,13.75
2022-10-01T14:34:47.087Z,13.81
2022-10-01T14:36:32.342Z,13.74
2022-10-01T14:37:39.426Z,13.80
2022-10-01T14:38:41.661Z,13.77
2022-10-01T14:39:43.878Z,13.65
2022-10-01T14:40:48.935Z,13.69
2022-10-01T14:41:53.520Z,13.69
2022-10-01T14:43:18.766Z,13.69
2022-10-01T14:44:45.907Z,13.73
2022-10-01T14:45:50.825Z,13.70
2022-10-01T14:46:58.622Z,13.63
2022-10-01T14:48:05.651Z,13.64
2022-10-01T14:49:26.294Z,13.61
2022-10-01T14:50:29.722Z,13.59
2022-10-01T14:51:33.995Z,13.59
2022-10-01T14:52:36.256Z,13.49
2022-10-01T14:53:46.325Z,13.54
2022-10-01T14:55:08.698Z,13.54
2022-10-01T14:56:16.876Z,13.54